Gandia, Spain
Current Conditions -  °F | °C
As of 9:00 AM on Sunday 26 Oct 2014 (Local Time) from LEVC Reporting Station
Clear Clear  
Wind Chill: 57°   Ceiling: Unl
Heat Index: 57°   Visibility: 6mi
Dew Point: 46°   Wind: 2mph
Humidity: 67%   Direction: NA
Pressure: 30.15"   Gusts: NA
Location:  38.97°N, 0.19°W
Report Text: LEVC 260700Z VRB02KT CAVOK 14/08 Q1021 NOSIG
Loading
Personal Weather Stations






























Interactive Weather Map
Tropical Storm Tracking
New forecast layout! Learn more

10-Day Weather Forecast

Advertisements
Track Severe Weather on mobile